Gray, Texas
Current Conditions -  °F | °C
As of 12:15 PM on Thursday 18 Dec 2014 (Local Time) from KASL Reporting Station
Overcast Overcast  
Wind Chill: 11°   Ceiling: 700
Heat Index: 11°   Visibility: 7mi
Dew Point:   Wind: 0mph
Humidity: 87%   Direction: NA
Pressure: 30.16"   Gusts: NA
Location:  32.7902°N, 94.3019°W
Report Text: KASL 181815Z AUTO 00000KT 7SM OVC007 11/09 A3016 RMK AO1 T01050085
Loading
Personal Weather Stations






























Interactive Weather Map New forecast layout! Learn more

10-Day Weather Forecast

Advertisements
Track Severe Weather on mobile